createdAt,value
2022-10-10T00:01:56.994Z,101456.88
2022-10-10T00:04:24.650Z,101454.75
2022-10-10T00:06:52.347Z,101451.25
2022-10-10T00:09:19.902Z,101449.34
2022-10-10T00:11:47.648Z,101442.09
2022-10-10T00:14:15.510Z,101442.69
2022-10-10T00:16:47.582Z,101436.22
2022-10-10T00:19:15.529Z,101434.56
2022-10-10T00:21:43.037Z,101446.31
2022-10-10T00:24:11.900Z,101436.47
2022-10-10T00:26:40.503Z,101432.19
2022-10-10T00:29:11.454Z,101437.66
2022-10-10T00:31:39.066Z,101430.09
2022-10-10T00:34:15.159Z,101424.47
2022-10-10T00:36:42.723Z,101430.25
2022-10-10T00:39:10.343Z,101428.13
2022-10-10T00:41:38.091Z,101424.16
2022-10-10T00:44:09.096Z,101431.22
2022-10-10T00:46:37.592Z,101435.09
2022-10-10T00:49:18.498Z,101437.59
2022-10-10T00:51:51.248Z,101440.06
2022-10-10T00:54:23.023Z,101446.81
2022-10-10T00:57:14.513Z,101433.03
2022-10-10T00:59:54.161Z,101438.56
2022-10-10T01:02:32.459Z,101436.56
2022-10-10T01:05:14.926Z,101431.09
2022-10-10T01:07:58.921Z,101427.19
2022-10-10T01:10:45.314Z,101436.31
2022-10-10T01:13:56.286Z,101434.94
2022-10-10T01:17:16.600Z,101434.94
2022-10-10T01:20:12.028Z,101424.44
2022-10-10T01:23:26.743Z,101432.69
2022-10-10T01:26:41.270Z,101430.75
2022-10-10T01:32:40.246Z,101431.56
2022-10-10T01:35:43.042Z,101421.06
2022-10-10T01:38:32.114Z,101426.31
2022-10-10T01:41:09.310Z,101416.78
2022-10-10T01:43:38.062Z,101420.31
2022-10-10T01:46:18.557Z,101407.66
2022-10-10T01:48:50.613Z,101413.78
2022-10-10T01:51:39.461Z,101405.94
2022-10-10T01:54:45.238Z,101406.22
2022-10-10T01:57:42.648Z,101405.16
2022-10-10T02:00:16.284Z,101414.03
2022-10-10T02:03:09.018Z,101397.84
2022-10-10T02:05:55.032Z,101405.63
2022-10-10T02:08:28.815Z,101407.41
2022-10-10T02:11:12.270Z,101402.03
2022-10-10T02:13:50.380Z,101398.44
2022-10-10T02:16:49.468Z,101387.75
2022-10-10T02:19:20.634Z,101392.94
2022-10-10T02:21:51.642Z,101392.13
2022-10-10T02:24:23.414Z,101391.31
2022-10-10T02:27:31.664Z,101395.94
2022-10-10T02:30:17.238Z,101388.06
2022-10-10T02:33:06.616Z,101384.31
2022-10-10T02:35:48.192Z,101387.94
2022-10-10T02:38:23.312Z,101377.66
2022-10-10T02:41:15.256Z,101384.28
2022-10-10T02:43:58.650Z,101373.66
2022-10-10T02:47:05.606Z,101375.84
2022-10-10T02:49:44.843Z,101376.75
2022-10-10T02:53:24.928Z,101379.59
2022-10-10T02:55:52.068Z,101378.16
2022-10-10T02:58:19.421Z,101381.25
2022-10-10T03:00:46.837Z,101370.91
2022-10-10T03:03:14.666Z,101377.97
2022-10-10T03:05:42.172Z,101375.03
2022-10-10T03:08:11.865Z,101373.16
2022-10-10T03:10:39.435Z,101370.44
2022-10-10T03:13:06.826Z,101379.16
2022-10-10T03:15:34.132Z,101377.13
2022-10-10T03:18:01.761Z,101378.78
2022-10-10T03:20:29.554Z,101378.16
2022-10-10T03:22:56.945Z,101379.00
2022-10-10T03:25:24.277Z,101373.44
2022-10-10T03:27:51.591Z,101381.53
2022-10-10T03:30:18.989Z,101387.56
2022-10-10T03:32:46.431Z,101389.19
2022-10-10T03:35:14.138Z,101375.84
2022-10-10T03:37:42.031Z,101372.06
2022-10-10T03:40:09.994Z,101372.97
2022-10-10T03:42:37.659Z,101384.06
2022-10-10T03:45:06.149Z,101370.72
2022-10-10T03:47:33.437Z,101370.72
2022-10-10T03:50:00.710Z,101370.72
2022-10-10T03:52:27.975Z,101369.88
2022-10-10T03:54:55.252Z,101360.97
2022-10-10T03:57:22.644Z,101372.22
2022-10-10T03:59:50.510Z,101373.03
2022-10-10T04:02:17.894Z,101373.28
2022-10-10T04:04:45.529Z,101370.56
2022-10-10T04:07:13.189Z,101374.09
2022-10-10T04:09:40.878Z,101379.47
2022-10-10T04:12:08.360Z,101377.00
2022-10-10T04:14:36.074Z,101383.25
2022-10-10T04:17:04.784Z,101384.50
2022-10-10T04:19:32.188Z,101384.72
2022-10-10T04:21:59.692Z,101380.38
2022-10-10T04:24:27.308Z,101383.88
2022-10-10T04:26:54.771Z,101378.94
2022-10-10T04:29:24.237Z,101385.16
2022-10-10T04:31:52.124Z,101379.97
2022-10-10T04:34:20.166Z,101376.47
2022-10-10T04:36:47.725Z,101381.06
2022-10-10T04:39:15.317Z,101379.97
2022-10-10T04:41:42.736Z,101383.53
2022-10-10T04:44:10.100Z,101380.59
2022-10-10T04:46:37.450Z,101388.69
2022-10-10T04:49:04.617Z,101389.28
2022-10-10T04:51:32.597Z,101382.69
2022-10-10T04:53:59.933Z,101388.28
2022-10-10T04:56:28.200Z,101386.44
2022-10-10T04:58:55.573Z,101400.97
2022-10-10T05:01:23.084Z,101391.03
2022-10-10T05:04:00.826Z,101396.84
2022-10-10T05:06:28.490Z,101380.22
2022-10-10T05:08:57.586Z,101384.34
2022-10-10T05:11:25.727Z,101385.16
2022-10-10T05:13:53.187Z,101386.44
2022-10-10T05:16:27.847Z,101386.75
2022-10-10T05:19:41.857Z,101387.78
2022-10-10T05:22:21.049Z,101389.69
2022-10-10T05:24:57.352Z,101386.00
2022-10-10T05:27:35.451Z,101389.97
2022-10-10T05:30:12.460Z,101391.00
2022-10-10T05:32:40.170Z,101389.16
2022-10-10T05:35:10.663Z,101393.09
2022-10-10T05:37:48.872Z,101392.25
2022-10-10T05:40:28.920Z,101399.31
2022-10-10T05:43:30.792Z,101404.47
2022-10-10T05:46:03.985Z,101401.66
2022-10-10T05:48:34.214Z,101402.25
2022-10-10T05:51:02.383Z,101406.84
2022-10-10T05:53:31.194Z,101402.03
2022-10-10T05:56:01.279Z,101402.88
2022-10-10T05:58:30.697Z,101402.69
2022-10-10T06:01:05.067Z,101404.31
2022-10-10T06:03:34.111Z,101409.91
2022-10-10T06:06:04.392Z,101409.75
2022-10-10T06:08:34.057Z,101407.66
2022-10-10T06:11:05.452Z,101414.69
2022-10-10T06:13:44.055Z,101419.91
2022-10-10T06:16:24.348Z,101415.31
2022-10-10T06:18:52.414Z,101428.00
2022-10-10T06:21:20.392Z,101431.91
2022-10-10T06:23:47.762Z,101435.03
2022-10-10T06:26:16.157Z,101431.09
2022-10-10T06:28:43.917Z,101436.03
2022-10-10T06:31:14.967Z,101428.31
2022-10-10T06:33:45.982Z,101431.19
2022-10-10T06:36:14.743Z,101436.13
2022-10-10T06:38:47.532Z,101439.66
2022-10-10T06:41:15.114Z,101435.84
2022-10-10T06:43:42.883Z,101443.06
2022-10-10T06:46:12.547Z,101445.72
2022-10-10T06:48:40.855Z,101446.47
2022-10-10T06:51:13.423Z,101454.28
2022-10-10T06:53:54.431Z,101453.25
2022-10-10T06:56:36.724Z,101454.44
2022-10-10T06:59:17.404Z,101452.03
2022-10-10T07:01:47.610Z,101455.25
2022-10-10T07:04:15.158Z,101453.72
2022-10-10T07:06:42.528Z,101456.13
2022-10-10T07:09:10.012Z,101458.56
2022-10-10T07:11:39.102Z,101455.72
2022-10-10T07:14:28.115Z,101457.13
2022-10-10T07:16:59.154Z,101461.03
2022-10-10T07:19:36.907Z,101465.56
2022-10-10T07:22:04.432Z,101464.47
2022-10-10T07:24:32.187Z,101478.03
2022-10-10T07:27:06.239Z,101481.19
2022-10-10T07:29:35.779Z,101493.63
2022-10-10T07:32:03.204Z,101491.25
2022-10-10T07:34:30.409Z,101497.22
2022-10-10T07:36:57.819Z,101500.81
2022-10-10T07:39:26.451Z,101502.25
2022-10-10T07:41:54.601Z,101505.91
2022-10-10T07:44:24.757Z,101505.75
2022-10-10T07:46:52.125Z,101510.34
2022-10-10T07:49:19.671Z,101510.31
2022-10-10T07:51:47.111Z,101510.22
2022-10-10T07:54:14.393Z,101515.25
2022-10-10T07:56:41.639Z,101518.19
2022-10-10T07:59:09.078Z,101519.75
2022-10-10T08:01:36.272Z,101512.97
2022-10-10T08:04:11.296Z,101526.03
2022-10-10T08:06:44.470Z,101521.53
2022-10-10T08:09:11.920Z,101519.41
2022-10-10T08:11:39.286Z,101520.28
2022-10-10T08:14:07.680Z,101522.47
2022-10-10T08:16:35.070Z,101528.44
2022-10-10T08:19:02.752Z,101524.59
2022-10-10T08:21:31.558Z,101540.47
2022-10-10T08:23:58.712Z,101530.56
2022-10-10T08:26:25.906Z,101529.13
2022-10-10T08:28:53.356Z,101531.16
2022-10-10T08:31:24.315Z,101534.44
2022-10-10T08:33:54.593Z,101535.41
2022-10-10T08:36:24.707Z,101534.91
2022-10-10T08:38:57.515Z,101543.25
2022-10-10T08:41:28.552Z,101547.63
2022-10-10T08:44:04.709Z,101545.13
2022-10-10T08:46:55.922Z,101543.47
2022-10-10T08:49:37.301Z,101547.38
2022-10-10T08:52:32.679Z,101550.53
2022-10-10T08:55:08.082Z,101546.91
2022-10-10T08:57:44.560Z,101543.66
2022-10-10T09:00:18.064Z,101547.78
2022-10-10T09:02:55.111Z,101550.63
2022-10-10T09:06:05.992Z,101546.19
2022-10-10T09:09:00.499Z,101544.66
2022-10-10T09:11:33.574Z,101547.88
2022-10-10T09:14:36.772Z,101548.97
2022-10-10T09:17:35.794Z,101549.34
2022-10-10T09:20:19.411Z,101548.34
2022-10-10T09:22:57.418Z,101551.41
2022-10-10T09:25:33.303Z,101550.38
2022-10-10T09:28:08.697Z,101544.25
2022-10-10T09:30:47.335Z,101547.16
2022-10-10T09:33:42.495Z,101547.66
2022-10-10T09:36:26.859Z,101548.22
2022-10-10T09:39:04.517Z,101545.66
2022-10-10T09:44:50.589Z,101555.63
2022-10-10T09:47:32.482Z,101558.09
2022-10-10T09:52:33.636Z,101556.84
2022-10-10T09:55:30.353Z,101554.81
2022-10-10T09:58:25.091Z,101554.94
2022-10-10T10:00:59.325Z,101554.13
2022-10-10T10:03:32.273Z,101557.28
2022-10-10T10:06:06.367Z,101566.50
2022-10-10T10:08:39.444Z,101557.53
2022-10-10T10:11:20.903Z,101562.63
2022-10-10T10:13:55.994Z,101563.56
2022-10-10T10:16:40.248Z,101565.53
2022-10-10T10:19:35.361Z,101568.97
2022-10-10T10:22:03.526Z,101571.09
2022-10-10T10:24:39.478Z,101562.25
2022-10-10T10:27:17.314Z,101568.38
2022-10-10T10:29:57.566Z,101564.59
2022-10-10T10:32:59.029Z,101569.31
2022-10-10T10:35:35.711Z,101564.81
2022-10-10T10:38:24.751Z,101559.66
2022-10-10T10:41:08.345Z,101563.06
2022-10-10T10:43:38.823Z,101558.47
2022-10-10T10:46:29.636Z,101560.69
2022-10-10T10:49:02.806Z,101563.44
2022-10-10T10:52:07.460Z,101569.66
2022-10-10T10:55:24.352Z,101573.38
2022-10-10T11:01:54.735Z,101578.50
2022-10-10T11:05:21.127Z,101578.25
2022-10-10T11:08:11.381Z,101577.56
2022-10-10T11:11:08.708Z,101583.66
2022-10-10T11:13:56.039Z,101584.63
2022-10-10T11:16:49.543Z,101574.59
2022-10-10T11:19:34.900Z,101576.47
2022-10-10T11:22:22.611Z,101579.44
2022-10-10T11:24:56.501Z,101581.22
2022-10-10T11:27:33.032Z,101577.31
2022-10-10T11:30:15.440Z,101577.19
2022-10-10T11:32:54.648Z,101577.69
2022-10-10T11:35:34.980Z,101574.84
2022-10-10T11:38:11.674Z,101578.03
2022-10-10T11:40:54.665Z,101568.00
2022-10-10T11:43:36.851Z,101574.72
2022-10-10T11:46:27.673Z,101569.41
2022-10-10T11:49:28.344Z,101571.03
2022-10-10T11:52:32.561Z,101566.09
2022-10-10T11:55:10.841Z,101561.38
2022-10-10T11:57:54.103Z,101560.94
2022-10-10T12:00:22.177Z,101556.13
2022-10-10T12:02:50.289Z,101561.28
2022-10-10T12:05:32.105Z,101555.03
2022-10-10T12:08:18.012Z,101553.84
2022-10-10T12:11:27.651Z,101549.47
2022-10-10T12:14:02.986Z,101543.59
2022-10-10T12:16:33.847Z,101542.44
2022-10-10T12:19:24.525Z,101537.88
2022-10-10T12:21:59.872Z,101533.13
2022-10-10T12:24:56.896Z,101532.53
2022-10-10T12:27:43.462Z,101537.81
2022-10-10T12:30:20.820Z,101532.88
2022-10-10T12:32:50.778Z,101531.59
2022-10-10T12:35:41.178Z,101529.22
2022-10-10T12:38:14.098Z,101532.53
2022-10-10T12:41:05.915Z,101523.13
2022-10-10T12:43:45.414Z,101509.91
2022-10-10T12:46:32.263Z,101511.63
2022-10-10T12:48:59.667Z,101505.34
2022-10-10T12:51:28.826Z,101497.16
2022-10-10T12:54:01.578Z,101499.75
2022-10-10T12:56:45.545Z,101491.72
2022-10-10T12:59:26.590Z,101501.31
2022-10-10T13:02:05.528Z,101500.41
2022-10-10T13:04:34.909Z,101496.13
2022-10-10T13:07:13.431Z,101500.16
2022-10-10T13:09:46.715Z,101495.38
2022-10-10T13:12:32.922Z,101496.44
2022-10-10T13:15:23.413Z,101497.06
2022-10-10T13:17:53.757Z,101495.66
2022-10-10T13:20:40.803Z,101499.06
2022-10-10T13:23:14.824Z,101496.69
2022-10-10T13:25:50.907Z,101489.84
2022-10-10T13:28:28.452Z,101489.06
2022-10-10T13:30:56.787Z,101494.03
2022-10-10T13:33:33.138Z,101491.13
2022-10-10T13:36:09.510Z,101493.69
2022-10-10T13:38:42.468Z,101495.44
2022-10-10T13:41:11.352Z,101496.50
2022-10-10T13:43:43.970Z,101492.25
2022-10-10T13:46:50.832Z,101500.00
2022-10-10T13:49:26.541Z,101499.88
2022-10-10T13:52:22.479Z,101499.31
2022-10-10T13:54:50.581Z,101491.72
2022-10-10T13:57:18.357Z,101496.41
2022-10-10T13:59:50.002Z,101488.75
2022-10-10T14:02:25.861Z,101493.16
2022-10-10T14:04:58.012Z,101485.81
2022-10-10T14:07:31.136Z,101482.66
2022-10-10T14:10:10.534Z,101490.28
2022-10-10T14:16:33.633Z,101484.28
2022-10-10T14:19:01.151Z,101489.25
2022-10-10T14:21:28.577Z,101485.44
2022-10-10T14:23:56.126Z,101495.03
2022-10-10T14:26:24.190Z,101489.13
2022-10-10T14:28:56.912Z,101488.53
2022-10-10T14:31:29.174Z,101498.69
2022-10-10T14:33:57.645Z,101491.06
2022-10-10T14:36:31.747Z,101498.13
2022-10-10T14:38:59.931Z,101504.59
2022-10-10T14:41:30.207Z,101503.69
2022-10-10T14:43:58.269Z,101499.41
2022-10-10T14:46:28.139Z,101500.50
2022-10-10T14:48:56.039Z,101500.38
2022-10-10T14:51:33.054Z,101503.22
2022-10-10T14:54:10.965Z,101508.41
2022-10-10T14:57:07.079Z,101497.78
2022-10-10T14:59:46.302Z,101495.53
2022-10-10T15:06:29.579Z,101496.63
2022-10-10T15:09:39.440Z,101490.84
2022-10-10T15:12:04.890Z,101495.09
2022-10-10T15:14:40.162Z,101492.50
2022-10-10T15:17:10.262Z,101501.31
2022-10-10T15:19:40.126Z,101493.13
2022-10-10T15:22:07.535Z,101501.13
2022-10-10T15:24:49.998Z,101505.94
2022-10-10T15:27:19.758Z,101506.41
2022-10-10T15:29:47.371Z,101508.41
2022-10-10T15:32:20.233Z,101512.16
2022-10-10T15:34:54.891Z,101515.34
2022-10-10T15:37:28.143Z,101518.19
2022-10-10T15:39:56.037Z,101518.56
2022-10-10T15:42:23.976Z,101519.84
2022-10-10T15:44:52.074Z,101513.94
2022-10-10T15:47:22.366Z,101513.50
2022-10-10T15:50:05.684Z,101516.78
2022-10-10T15:52:36.100Z,101511.97
2022-10-10T15:55:47.191Z,101511.22
2022-10-10T15:58:25.199Z,101512.69
2022-10-10T16:00:53.606Z,101504.56
2022-10-10T16:03:21.039Z,101505.84
2022-10-10T16:05:55.128Z,101508.06
2022-10-10T16:08:24.134Z,101505.00
2022-10-10T16:10:52.104Z,101495.84
2022-10-10T16:13:19.970Z,101508.78
2022-10-10T16:15:57.878Z,101503.72
2022-10-10T16:18:36.622Z,101500.69
2022-10-10T16:21:09.525Z,101494.56
2022-10-10T16:23:40.869Z,101501.03
2022-10-10T16:26:12.483Z,101502.06
2022-10-10T16:28:40.924Z,101504.78
2022-10-10T16:31:10.811Z,101499.00
2022-10-10T16:33:41.727Z,101499.47
2022-10-10T16:36:15.420Z,101507.38
2022-10-10T16:38:43.268Z,101512.88
2022-10-10T16:41:29.118Z,101511.13
2022-10-10T16:44:04.333Z,101507.38
2022-10-10T16:46:34.696Z,101503.00
2022-10-10T16:49:02.651Z,101512.53
2022-10-10T16:51:31.829Z,101512.31
2022-10-10T16:54:06.377Z,101516.31
2022-10-10T16:56:34.622Z,101514.69
2022-10-10T16:59:10.032Z,101518.88
2022-10-10T17:01:38.192Z,101512.38
2022-10-10T17:04:13.594Z,101520.16
2022-10-10T17:06:43.653Z,101517.94
2022-10-10T17:09:16.244Z,101519.56
2022-10-10T17:11:51.526Z,101530.06
2022-10-10T17:14:27.189Z,101528.25
2022-10-10T17:17:25.691Z,101523.31
2022-10-10T17:19:57.471Z,101524.94
2022-10-10T17:22:25.251Z,101522.38
2022-10-10T17:24:56.733Z,101524.25
2022-10-10T17:27:25.387Z,101528.72
2022-10-10T17:29:54.858Z,101526.34
2022-10-10T17:32:23.261Z,101535.41
2022-10-10T17:34:56.228Z,101535.84
2022-10-10T17:37:23.775Z,101538.13
2022-10-10T17:39:54.548Z,101540.81
2022-10-10T17:42:22.298Z,101536.94
2022-10-10T17:44:53.987Z,101537.75
2022-10-10T17:47:27.379Z,101542.91
2022-10-10T17:49:55.107Z,101540.06
2022-10-10T17:52:22.946Z,101547.16
2022-10-10T17:55:05.277Z,101554.22
2022-10-10T17:57:39.480Z,101559.25
2022-10-10T18:00:09.147Z,101558.75
2022-10-10T18:02:36.821Z,101565.69
2022-10-10T18:05:04.952Z,101565.09
2022-10-10T18:07:32.868Z,101572.75
2022-10-10T18:10:01.678Z,101572.75
2022-10-10T18:12:29.817Z,101569.06
2022-10-10T18:15:14.934Z,101577.53
2022-10-10T18:17:42.904Z,101574.84
2022-10-10T18:20:14.301Z,101573.94
2022-10-10T18:22:47.242Z,101574.84
2022-10-10T18:25:14.780Z,101576.03
2022-10-10T18:27:42.283Z,101575.69
2022-10-10T18:30:10.728Z,101580.00
2022-10-10T18:32:44.586Z,101582.88
2022-10-10T18:35:17.737Z,101582.06
2022-10-10T18:38:01.973Z,101588.03
2022-10-10T18:40:37.262Z,101588.88
2022-10-10T18:46:39.588Z,101588.03
2022-10-10T18:49:50.153Z,101587.22
2022-10-10T18:52:58.847Z,101587.94
2022-10-10T18:55:51.792Z,101593.09
2022-10-10T18:58:56.671Z,101589.19
2022-10-10T19:01:37.618Z,101586.28
2022-10-10T19:04:09.690Z,101590.03
2022-10-10T19:06:44.027Z,101593.53
2022-10-10T19:09:36.453Z,101589.06
2022-10-10T19:12:17.023Z,101587.63
2022-10-10T19:14:56.448Z,101595.28
2022-10-10T19:17:30.889Z,101598.22
2022-10-10T19:20:01.222Z,101592.81
2022-10-10T19:22:34.074Z,101605.06
2022-10-10T19:25:05.525Z,101605.06
2022-10-10T19:27:41.786Z,101608.38
2022-10-10T19:30:21.374Z,101615.59
2022-10-10T19:32:54.323Z,101606.41
2022-10-10T19:35:27.786Z,101613.13
2022-10-10T19:37:58.673Z,101619.69
2022-10-10T19:40:32.658Z,101620.84
2022-10-10T19:43:18.270Z,101615.66
2022-10-10T19:46:00.089Z,101625.22
2022-10-10T19:48:54.316Z,101626.84
2022-10-10T19:51:49.708Z,101630.00
2022-10-10T19:54:36.499Z,101624.88
2022-10-10T19:57:11.401Z,101630.97
2022-10-10T19:59:39.376Z,101629.28
2022-10-10T20:02:20.283Z,101627.28
2022-10-10T20:04:53.603Z,101632.47
2022-10-10T20:07:22.202Z,101630.78
2022-10-10T20:09:55.891Z,101632.53
2022-10-10T20:12:23.491Z,101633.16
2022-10-10T20:14:52.949Z,101628.44
2022-10-10T20:17:20.924Z,101627.34
2022-10-10T20:19:54.509Z,101635.63
2022-10-10T20:22:22.730Z,101635.38
2022-10-10T20:24:51.018Z,101634.94
2022-10-10T20:27:18.640Z,101640.94
2022-10-10T20:29:46.407Z,101645.16
2022-10-10T20:32:14.006Z,101643.72
2022-10-10T20:34:41.579Z,101650.75
2022-10-10T20:37:09.796Z,101658.69
2022-10-10T20:39:42.279Z,101649.78
2022-10-10T20:42:09.947Z,101651.84
2022-10-10T20:44:39.525Z,101654.31
2022-10-10T20:47:07.432Z,101659.38
2022-10-10T20:49:46.797Z,101663.91
2022-10-10T20:52:18.838Z,101664.56
2022-10-10T20:54:54.677Z,101661.44
2022-10-10T20:57:22.907Z,101667.22
2022-10-10T20:59:50.710Z,101663.25
2022-10-10T21:02:19.527Z,101665.34
2022-10-10T21:04:47.601Z,101659.25
2022-10-10T21:07:15.455Z,101662.88
2022-10-10T21:09:49.796Z,101674.50
2022-10-10T21:12:33.562Z,101670.53
2022-10-10T21:15:02.992Z,101673.22
2022-10-10T21:17:31.152Z,101670.75
2022-10-10T21:20:04.664Z,101661.88
2022-10-10T21:22:33.484Z,101668.34
2022-10-10T21:25:01.242Z,101667.44
2022-10-10T21:27:29.494Z,101661.00
2022-10-10T21:30:05.212Z,101664.38
2022-10-10T21:32:32.900Z,101658.97
2022-10-10T21:35:00.724Z,101662.25
2022-10-10T21:37:29.711Z,101659.56
2022-10-10T21:39:57.405Z,101663.91
2022-10-10T21:42:25.020Z,101666.47
2022-10-10T21:44:52.484Z,101670.59
2022-10-10T21:47:19.905Z,101667.88
2022-10-10T21:49:52.827Z,101669.78
2022-10-10T21:52:29.305Z,101669.09
2022-10-10T21:54:56.941Z,101675.25
2022-10-10T21:57:24.754Z,101676.50
2022-10-10T21:59:52.969Z,101676.97
2022-10-10T22:02:20.423Z,101681.06
2022-10-10T22:04:51.678Z,101675.53
2022-10-10T22:07:19.599Z,101671.97
2022-10-10T22:09:50.910Z,101674.63
2022-10-10T22:12:20.220Z,101673.13
2022-10-10T22:14:49.126Z,101667.72
2022-10-10T22:17:16.952Z,101669.63
2022-10-10T22:19:44.908Z,101665.03
2022-10-10T22:22:12.686Z,101674.63
2022-10-10T22:24:41.539Z,101668.41
2022-10-10T22:27:11.231Z,101667.13
2022-10-10T22:29:39.053Z,101672.81
2022-10-10T22:32:06.917Z,101676.16
2022-10-10T22:34:34.647Z,101665.97
2022-10-10T22:37:03.257Z,101662.25
2022-10-10T22:39:31.470Z,101667.88
2022-10-10T22:42:20.907Z,101670.78
2022-10-10T22:45:04.051Z,101673.47
2022-10-10T22:47:32.232Z,101669.13
2022-10-10T22:50:00.931Z,101663.97
2022-10-10T22:52:28.883Z,101667.94
2022-10-10T22:54:56.531Z,101664.00
2022-10-10T22:57:24.306Z,101664.00
2022-10-10T22:59:54.263Z,101662.81
2022-10-10T23:02:21.720Z,101667.34
2022-10-10T23:04:50.393Z,101660.09
2022-10-10T23:07:21.887Z,101658.88
2022-10-10T23:09:49.892Z,101664.75
2022-10-10T23:12:17.481Z,101653.75
2022-10-10T23:14:45.318Z,101658.94
2022-10-10T23:17:12.668Z,101656.91
2022-10-10T23:19:45.457Z,101662.94
2022-10-10T23:22:13.304Z,101671.50
2022-10-10T23:24:41.606Z,101659.94
2022-10-10T23:27:09.158Z,101661.81
2022-10-10T23:29:37.023Z,101659.72
2022-10-10T23:32:05.204Z,101658.06
2022-10-10T23:34:33.273Z,101641.84
2022-10-10T23:37:01.117Z,101652.44
2022-10-10T23:39:28.787Z,101649.38
2022-10-10T23:41:56.747Z,101654.13
2022-10-10T23:44:24.534Z,101649.22
2022-10-10T23:46:52.284Z,101652.53
2022-10-10T23:49:19.869Z,101648.59
2022-10-10T23:51:47.835Z,101653.13
2022-10-10T23:54:16.088Z,101645.94
2022-10-10T23:56:49.403Z,101642.19
2022-10-10T23:59:17.368Z,101635.75
